Time;durP1;ratioP1;P1;durP2;ratioP2;P2;SDS_P1;SDS_P2;PMS_P1;PMS_P2;Temp;Humidity;BMP_temperature;BMP_pressure;BME280_temperature;BME280_humidity;BME280_pressure;Samples;Min_cycle;Max_cycle;Signal;HPM_P1;HPM_P2
2022/07/04 00:01:14;;;;;;;0.40;0.20;;;;;;;21.21;65.20;100447.13;5021550;28;20453;-51
2022/07/04 00:03:41;;;;;;;0.40;0.20;;;;;;;21.48;64.33;100455.16;5027133;28;20452;-51
2022/07/04 00:06:07;;;;;;;0.40;0.20;;;;;;;21.17;65.39;100445.63;5025699;28;20537;-51
2022/07/04 00:08:34;;;;;;;0.40;0.20;;;;;;;21.47;63.95;100449.88;5020036;28;20459;-51
2022/07/04 00:11:01;;;;;;;0.40;0.30;;;;;;;20.82;66.56;100455.31;5021275;28;20779;-51
2022/07/04 00:13:27;;;;;;;0.40;0.20;;;;;;;20.64;67.40;100449.31;5026807;28;20467;-52
2022/07/04 00:15:54;;;;;;;0.40;0.20;;;;;;;20.27;69.34;100446.34;5026113;28;20463;-51
2022/07/04 00:18:21;;;;;;;0.40;0.20;;;;;;;20.34;69.52;100450.38;5020060;28;20814;-51
2022/07/04 00:20:47;;;;;;;0.40;0.20;;;;;;;20.02;70.87;100446.25;5020740;28;20463;-50
2022/07/04 00:23:14;;;;;;;0.40;0.30;;;;;;;19.88;71.80;100451.69;5026147;28;20445;-49
2022/07/04 00:25:40;;;;;;;0.40;0.20;;;;;;;19.88;71.68;100449.84;5026142;28;20499;-49
2022/07/04 00:28:07;;;;;;;0.40;0.20;;;;;;;19.57;73.21;100450.91;5019357;28;20443;-49
2022/07/04 00:30:34;;;;;;;0.40;0.20;;;;;;;19.45;73.56;100449.81;5019874;28;20547;-49
2022/07/04 00:33:00;;;;;;;0.40;0.20;;;;;;;19.49;73.57;100450.50;5007028;28;20451;-49
2022/07/04 00:35:27;;;;;;;0.40;0.20;;;;;;;19.25;74.43;100455.59;5019727;28;20997;-49
2022/07/04 00:37:53;;;;;;;0.40;0.20;;;;;;;19.06;75.83;100453.19;5019779;28;20457;-49
2022/07/04 00:40:20;;;;;;;0.40;0.20;;;;;;;18.98;75.63;100454.59;5032792;28;20448;-49
2022/07/04 00:42:46;;;;;;;0.40;0.20;;;;;;;19.11;75.97;100456.44;5026386;28;20460;-49
2022/07/04 00:45:12;;;;;;;0.40;0.20;;;;;;;19.16;75.31;100456.16;5026441;28;20468;-49
2022/07/04 00:47:39;;;;;;;0.40;0.20;;;;;;;19.10;75.82;100448.47;5014923;28;20916;-49
2022/07/04 00:50:06;;;;;;;0.40;0.20;;;;;;;19.10;76.28;100456.53;5019490;28;20453;-49
2022/07/04 00:52:32;;;;;;;0.40;0.20;;;;;;;19.12;76.15;100454.63;5025215;28;20453;-50
2022/07/04 00:55:00;;;;;;;0.40;0.20;;;;;;;19.12;75.73;100463.56;5019447;28;20479;-50
2022/07/04 00:57:27;;;;;;;0.40;0.20;;;;;;;19.03;76.44;100464.13;5025456;28;20514;-50
2022/07/04 00:59:53;;;;;;;0.40;0.20;;;;;;;18.92;76.72;100469.31;5026025;28;20451;-51
2022/07/04 01:02:20;;;;;;;0.40;0.20;;;;;;;19.01;76.40;100473.25;5020372;28;20837;-50
2022/07/04 01:04:46;;;;;;;0.40;0.20;;;;;;;18.94;76.98;100470.97;5017836;28;20626;-49
2022/07/04 01:07:13;;;;;;;0.40;0.20;;;;;;;18.96;76.04;100481.63;5024964;28;20584;-50
2022/07/04 01:09:40;;;;;;;0.40;0.20;;;;;;;18.91;76.98;100476.53;5025924;28;20953;-50
2022/07/04 01:12:06;;;;;;;0.40;0.20;;;;;;;18.66;78.21;100475.38;5020342;28;20452;-50
2022/07/04 01:14:37;;;;;;;0.40;0.20;;;;;;;18.45;79.38;100477.47;5019018;28;20473;-50
2022/07/04 01:17:03;;;;;;;0.40;0.20;;;;;;;18.71;78.37;100482.22;5024273;28;20453;-51
2022/07/04 01:19:30;;;;;;;0.40;0.20;;;;;;;18.93;77.83;100498.00;5025718;28;20920;-50
2022/07/04 01:21:56;;;;;;;0.40;0.20;;;;;;;18.79;77.60;100489.88;5020679;28;20454;-50
2022/07/04 01:24:23;;;;;;;0.40;0.20;;;;;;;18.96;77.12;100489.72;5018932;28;20476;-50
2022/07/04 01:26:49;;;;;;;0.40;0.20;;;;;;;18.62;78.45;100494.34;5024135;28;20523;-50
2022/07/04 01:29:17;;;;;;;0.40;0.20;;;;;;;18.56;78.90;100499.25;5026122;28;20458;-50
2022/07/04 01:31:43;;;;;;;0.40;0.20;;;;;;;18.30;80.52;100501.63;5020462;28;20462;-50
2022/07/04 01:34:10;;;;;;;0.40;0.20;;;;;;;18.23;80.34;100504.75;5019340;28;20567;-53
2022/07/04 01:36:36;;;;;;;0.40;0.20;;;;;;;18.13;81.12;100507.09;5023523;28;20452;-53
2022/07/04 01:39:03;;;;;;;0.40;0.20;;;;;;;18.11;81.45;100506.31;5029181;28;20910;-53
2022/07/04 01:41:35;;;;;;;0.40;0.20;;;;;;;18.35;80.53;100501.34;5036436;28;20463;-53
2022/07/04 01:44:02;;;;;;;0.40;0.20;;;;;;;18.40;80.02;100503.78;5022935;28;20536;-53
2022/07/04 01:46:28;;;;;;;0.40;0.20;;;;;;;18.38;79.95;100509.28;5025364;28;20496;-53
2022/07/04 01:48:55;;;;;;;0.40;0.20;;;;;;;18.51;79.53;100509.44;5029567;28;20452;-54
2022/07/04 01:51:21;;;;;;;0.50;0.40;;;;;;;18.42;79.28;100505.44;5022460;28;20452;-53
2022/07/04 01:53:48;;;;;;;0.40;0.20;;;;;;;18.62;78.63;100515.91;5029603;28;20483;-53
2022/07/04 01:56:14;;;;;;;0.40;0.20;;;;;;;18.20;79.87;100519.22;5027166;28;20816;-53
2022/07/04 01:58:41;;;;;;;0.40;0.20;;;;;;;17.76;82.68;100524.41;5022645;28;21044;-54
2022/07/04 02:03:52;;;;;;;0.40;0.20;;;;;;;17.86;82.69;100535.53;5011141;28;20498;-54
2022/07/04 02:06:19;;;;;;;0.40;0.20;;;;;;;17.82;82.81;100537.53;5022492;28;21049;-54
2022/07/04 02:13:00;;;;;;;0.40;0.20;;;;;;;18.02;81.96;100531.03;5029168;28;20452;-54
2022/07/04 02:14:16;;;;;;;0.40;0.20;;;;;;;18.19;81.09;100539.03;5028161;28;20995;-54
2022/07/04 02:16:43;;;;;;;0.40;0.20;;;;;;;18.51;79.39;100539.06;5022342;28;20975;-53
2022/07/04 02:19:09;;;;;;;0.40;0.20;;;;;;;18.14;80.59;100537.56;5023075;28;20448;-54
2022/07/04 02:21:36;;;;;;;0.40;0.20;;;;;;;18.73;78.80;100538.69;5034289;28;20470;-54
2022/07/04 02:24:03;;;;;;;0.40;0.20;;;;;;;18.27;79.81;100542.16;5022963;28;20483;-53
2022/07/04 02:26:29;;;;;;;0.40;0.20;;;;;;;18.26;80.16;100542.25;5028540;28;20495;-53
2022/07/04 02:28:56;;;;;;;0.40;0.20;;;;;;;18.55;78.89;100540.59;5028457;28;20491;-53
2022/07/04 02:31:22;;;;;;;0.40;0.20;;;;;;;18.30;79.87;100541.13;5022169;28;20454;-53
2022/07/04 02:33:49;;;;;;;0.40;0.20;;;;;;;17.81;81.97;100554.59;5022430;28;20499;-53
2022/07/04 02:36:15;;;;;;;0.40;0.20;;;;;;;17.72;82.79;100555.09;5028598;28;20452;-53
2022/07/04 02:38:42;;;;;;;0.40;0.20;;;;;;;17.43;84.13;100546.75;5028366;28;20452;-53
2022/07/04 02:41:08;;;;;;;0.40;0.20;;;;;;;17.60;83.86;100553.91;5035021;28;20447;-53
2022/07/04 02:43:35;;;;;;;0.40;0.20;;;;;;;17.52;83.78;100556.13;5022277;28;20452;-53
2022/07/04 02:46:01;;;;;;;0.40;0.20;;;;;;;17.26;84.83;100549.41;5007334;28;20925;-53
2022/07/04 02:48:28;;;;;;;0.40;0.20;;;;;;;17.29;84.96;100545.72;5028621;28;20451;-54
2022/07/04 02:50:54;;;;;;;0.40;0.20;;;;;;;17.24;84.80;100553.13;5020218;28;20452;-54
2022/07/04 02:53:21;;;;;;;0.40;0.20;;;;;;;17.13;85.84;100553.69;5028108;28;20455;-53
2022/07/04 02:55:47;;;;;;;0.40;0.20;;;;;;;17.07;86.02;100554.00;5022369;28;20482;-53
2022/07/04 02:58:13;;;;;;;0.40;0.20;;;;;;;17.03;85.92;100557.81;5021715;28;20453;-53
2022/07/04 03:00:40;;;;;;;0.40;0.20;;;;;;;17.01;86.24;100554.34;5027548;28;20463;-53
2022/07/04 03:03:06;;;;;;;0.40;0.20;;;;;;;17.14;85.95;100550.94;5027966;28;20535;-53
2022/07/04 03:05:33;;;;;;;0.40;0.20;;;;;;;17.14;85.95;100547.41;5022628;28;20970;-53
2022/07/04 03:07:59;;;;;;;0.40;0.20;;;;;;;16.92;86.62;100544.06;5021229;28;20484;-53
2022/07/04 03:10:26;;;;;;;0.40;0.20;;;;;;;16.98;86.51;100552.66;5026950;28;20972;-53
2022/07/04 03:12:52;;;;;;;0.40;0.20;;;;;;;16.87;86.91;100546.97;5028247;28;20483;-53
2022/07/04 03:15:19;;;;;;;0.40;0.20;;;;;;;16.77;87.34;100537.66;5022378;28;20976;-53
2022/07/04 03:17:45;;;;;;;0.40;0.20;;;;;;;16.68;87.66;100538.97;5021223;28;20539;-53
2022/07/04 03:20:11;;;;;;;0.40;0.20;;;;;;;16.69;87.91;100542.50;5026880;28;20453;-53
2022/07/04 03:22:38;;;;;;;0.40;0.20;;;;;;;16.91;86.92;100545.00;5027690;28;20462;-54
2022/07/04 03:25:05;;;;;;;0.40;0.20;;;;;;;16.72;87.17;100548.63;5022410;28;20474;-53
2022/07/04 03:27:31;;;;;;;0.40;0.20;;;;;;;16.65;87.59;100549.81;5021040;28;20489;-53
2022/07/04 03:29:58;;;;;;;0.40;0.20;;;;;;;16.63;88.19;100562.47;5026270;28;20964;-53
2022/07/04 03:32:24;;;;;;;0.40;0.20;;;;;;;16.56;87.99;100561.88;5027702;28;20509;-53
2022/07/04 03:34:51;;;;;;;0.40;0.20;;;;;;;16.72;87.75;100563.84;5022485;28;20479;-53
2022/07/04 03:37:17;;;;;;;0.40;0.20;;;;;;;16.63;88.04;100566.97;5020924;28;20455;-54
2022/07/04 03:39:43;;;;;;;0.40;0.20;;;;;;;16.65;87.98;100573.13;5034323;28;20443;-53
2022/07/04 03:42:16;;;;;;;0.40;0.20;;;;;;;16.45;89.32;100579.47;5032185;28;20888;-53
2022/07/04 03:44:42;;;;;;;0.40;0.30;;;;;;;16.58;88.09;100577.91;5023029;28;20999;-53
2022/07/04 03:47:09;;;;;;;0.40;0.20;;;;;;;16.51;88.67;100574.66;5020291;28;21023;-53
2022/07/04 03:49:35;;;;;;;0.40;0.20;;;;;;;16.57;88.54;100579.72;5024917;28;20452;-53
2022/07/04 03:52:02;;;;;;;0.40;0.20;;;;;;;16.36;89.92;100588.81;5021531;28;20475;-53
2022/07/04 03:54:29;;;;;;;0.40;0.20;;;;;;;16.39;89.92;100577.94;5024937;28;20482;-53
2022/07/04 03:56:55;;;;;;;0.40;0.20;;;;;;;16.21;90.45;100587.72;5027294;28;20991;-54
2022/07/04 03:59:22;;;;;;;0.40;0.20;;;;;;;16.25;90.74;100600.03;5022966;28;20452;-53
2022/07/04 04:01:48;;;;;;;0.40;0.20;;;;;;;16.11;91.02;100588.22;5020171;28;20464;-53
2022/07/04 04:07:01;;;;;;;0.40;0.20;;;;;;;16.35;91.61;100588.88;4998134;28;20483;-54
2022/07/04 04:09:28;;;;;;;0.40;0.20;;;;;;;16.34;91.50;100589.84;5021637;28;20540;-54
2022/07/04 04:11:54;;;;;;;0.40;0.20;;;;;;;16.26;92.39;100593.72;5026969;28;20453;-53
2022/07/04 04:14:21;;;;;;;0.40;0.20;;;;;;;16.49;91.62;100600.69;5025492;28;20472;-53
2022/07/04 04:16:47;;;;;;;0.40;0.20;;;;;;;16.50;91.67;100598.88;5019756;28;20448;-53
2022/07/04 04:19:14;;;;;;;0.53;0.53;;;;;;;16.61;91.16;100596.56;5021453;28;20448;-53
2022/07/04 04:21:40;;;;;;;0.40;0.20;;;;;;;16.86;90.75;100596.25;5030817;28;20440;-54
2022/07/04 04:24:07;;;;;;;0.40;0.20;;;;;;;17.09;88.51;100590.59;5020862;28;20993;-54
2022/07/04 04:26:34;;;;;;;0.40;0.20;;;;;;;16.96;90.25;100580.53;5026425;28;20488;-53
2022/07/04 04:29:00;;;;;;;0.40;0.20;;;;;;;17.37;90.00;100595.41;5025906;28;20506;-53
2022/07/04 04:31:27;;;;;;;0.40;0.20;;;;;;;17.54;87.76;100589.16;5019549;28;20806;-53
2022/07/04 04:33:53;;;;;;;0.40;0.20;;;;;;;17.75;86.38;100597.94;5019127;28;20508;-53
2022/07/04 04:36:20;;;;;;;0.40;0.20;;;;;;;18.40;82.76;100596.19;5026227;28;20964;-53
2022/07/04 04:38:46;;;;;;;0.40;0.20;;;;;;;19.04;80.58;100600.59;5025687;28;20451;-52
2022/07/04 04:41:13;;;;;;;0.40;0.20;;;;;;;19.74;77.00;100599.09;5032991;28;20454;-53
2022/07/04 04:43:39;;;;;;;0.40;0.20;;;;;;;20.10;75.17;100604.00;5019405;28;20831;-53
2022/07/04 04:46:06;;;;;;;0.40;0.20;;;;;;;20.87;73.36;100612.63;5025562;28;20452;-53
2022/07/04 04:48:32;;;;;;;0.40;0.20;;;;;;;21.19;72.46;100607.75;5026576;28;20541;-54
2022/07/04 04:50:59;;;;;;;0.40;0.20;;;;;;;21.36;71.21;100609.34;5018828;28;20458;-53
2022/07/04 04:53:30;;;;;;;0.40;0.20;;;;;;;21.67;69.72;100618.94;5026210;28;20518;-53
2022/07/04 04:55:56;;;;;;;0.40;0.20;;;;;;;21.82;68.44;100615.16;5021021;28;20459;-54
2022/07/04 04:58:23;;;;;;;0.40;0.20;;;;;;;21.94;67.83;100621.56;5019023;28;20455;-53
2022/07/04 05:00:50;;;;;;;0.40;0.20;;;;;;;22.24;66.64;100622.09;5024738;28;20478;-54
2022/07/04 05:03:36;;;;;;;0.40;0.20;;;;;;;22.03;66.76;100620.88;5024810;28;20448;-54
2022/07/04 05:06:06;;;;;;;0.40;0.20;;;;;;;22.18;67.09;100626.09;5019863;28;20457;-54
2022/07/04 05:08:33;;;;;;;0.40;0.20;;;;;;;22.88;64.46;100625.53;5025706;28;20492;-54
2022/07/04 05:10:59;;;;;;;0.40;0.20;;;;;;;22.85;64.31;100624.91;5023968;28;20963;-53
2022/07/04 05:13:26;;;;;;;0.40;0.20;;;;;;;24.01;60.34;100635.00;5018630;28;20488;-53
2022/07/04 05:15:52;;;;;;;0.40;0.20;;;;;;;24.02;60.47;100636.75;5021172;28;20503;-53
2022/07/04 05:18:19;;;;;;;0.40;0.20;;;;;;;24.81;58.37;100635.78;5025650;28;20450;-54
2022/07/04 05:20:45;;;;;;;0.40;0.20;;;;;;;24.27;58.80;100636.53;5024499;28;20470;-54
2022/07/04 05:23:12;;;;;;;0.40;0.20;;;;;;;24.14;59.52;100641.22;5018815;28;20494;-54
2022/07/04 05:25:38;;;;;;;0.40;0.30;;;;;;;25.22;56.61;100639.63;5020639;28;20469;-54
2022/07/04 05:28:05;;;;;;;0.40;0.20;;;;;;;25.12;56.61;100638.69;5025835;28;20496;-54
2022/07/04 05:30:32;;;;;;;0.40;0.20;;;;;;;24.71;57.21;100642.94;5024708;28;20448;-53
2022/07/04 05:33:00;;;;;;;0.40;0.20;;;;;;;24.85;57.34;100641.81;5019088;28;20822;-53
2022/07/04 05:35:27;;;;;;;0.40;0.20;;;;;;;24.48;58.82;100642.09;5028527;28;20509;-53
2022/07/04 05:37:54;;;;;;;0.40;0.20;;;;;;;24.10;59.36;100645.13;5018572;28;20447;-53
2022/07/04 05:40:21;;;;;;;0.40;0.20;;;;;;;24.10;59.25;100634.25;5032516;28;20477;-53
2022/07/04 05:42:48;;;;;;;0.40;0.20;;;;;;;24.77;58.22;100642.44;5006507;28;21018;-53
2022/07/04 05:45:15;;;;;;;0.40;0.30;;;;;;;24.79;57.46;100644.03;5019038;28;20472;-53
2022/07/04 05:47:42;;;;;;;0.40;0.20;;;;;;;25.15;57.03;100638.44;5023728;28;20553;-53
2022/07/04 05:50:09;;;;;;;0.40;0.30;;;;;;;25.00;57.17;100644.16;5018666;28;20453;-53
2022/07/04 05:52:36;;;;;;;0.40;0.20;;;;;;;25.28;55.00;100650.00;5024741;28;20535;-54
2022/07/04 05:55:03;;;;;;;0.40;0.20;;;;;;;24.57;57.36;100649.50;5025440;28;20818;-53
2022/07/04 05:57:29;;;;;;;0.40;0.20;;;;;;;24.38;56.63;100647.41;5020614;28;20444;-53
2022/07/04 05:59:55;;;;;;;0.40;0.20;;;;;;;24.89;55.02;100644.16;5019240;28;20453;-53
2022/07/04 06:02:22;;;;;;;0.40;0.20;;;;;;;24.85;54.57;100642.69;5024540;28;20452;-54
2022/07/04 06:04:48;;;;;;;0.40;0.20;;;;;;;24.94;54.41;100652.78;5016871;28;20982;-54
2022/07/04 06:07:15;;;;;;;0.40;0.20;;;;;;;24.90;54.73;100655.88;5023941;28;20488;-53
2022/07/04 06:09:41;;;;;;;0.40;0.20;;;;;;;24.81;54.51;100655.69;5025524;28;20988;-53
2022/07/04 06:12:08;;;;;;;0.40;0.20;;;;;;;25.05;54.00;100644.63;5020236;28;20462;-53
2022/07/04 06:14:34;;;;;;;0.40;0.20;;;;;;;25.09;54.82;100646.13;5019359;28;20500;-53
2022/07/04 06:17:01;;;;;;;0.40;0.20;;;;;;;25.03;54.36;100648.47;5023757;28;20451;-53
2022/07/04 06:19:28;;;;;;;0.47;0.30;;;;;;;25.49;52.20;100642.72;5024913;28;20944;-53
2022/07/04 06:21:54;;;;;;;0.40;0.20;;;;;;;25.84;50.64;100645.19;5020493;28;20454;-53
2022/07/04 06:24:21;;;;;;;0.40;0.20;;;;;;;25.19;52.50;100643.47;5018349;28;20478;-53
2022/07/04 06:26:47;;;;;;;0.40;0.20;;;;;;;25.73;51.69;100639.81;5025991;28;20448;-53
2022/07/04 06:29:14;;;;;;;0.40;0.20;;;;;;;25.45;51.51;100641.28;5028879;28;20451;-52
2022/07/04 06:31:40;;;;;;;0.40;0.20;;;;;;;25.37;51.46;100644.66;5024383;28;20827;-53
2022/07/04 06:36:51;;;;;;;0.40;0.20;;;;;;;24.99;52.83;100641.53;5024118;28;20446;-54
2022/07/04 06:39:18;;;;;;;0.40;0.20;;;;;;;25.30;52.47;100642.56;5033156;28;20546;-54
2022/07/04 06:41:45;;;;;;;0.40;0.20;;;;;;;25.42;51.51;100638.81;5035307;28;20470;-54
2022/07/04 06:44:11;;;;;;;0.40;0.20;;;;;;;25.39;51.56;100630.91;5021877;28;20542;-54
2022/07/04 06:46:39;;;;;;;0.40;0.20;;;;;;;25.69;50.38;100630.19;5023340;28;20464;-54
2022/07/04 06:49:05;;;;;;;0.40;0.20;;;;;;;24.87;51.79;100632.53;5028654;28;20492;-54
2022/07/04 06:51:32;;;;;;;0.40;0.20;;;;;;;25.24;52.09;100624.06;5026778;28;21284;-54
2022/07/04 06:53:58;;;;;;;0.40;0.20;;;;;;;24.83;51.71;100625.63;5021791;28;20478;-53
2022/07/04 06:56:25;;;;;;;0.40;0.20;;;;;;;25.04;51.93;100617.56;5023177;28;20452;-54
2022/07/04 06:58:51;;;;;;;0.40;0.20;;;;;;;25.37;50.24;100619.31;5028252;28;20448;-54
2022/07/04 07:01:22;;;;;;;0.40;0.20;;;;;;;25.10;51.24;100617.91;5027586;28;20944;-54
2022/07/04 07:03:49;;;;;;;0.47;0.37;;;;;;;25.16;50.86;100607.50;5018910;28;20894;-54
2022/07/04 07:06:16;;;;;;;0.40;0.20;;;;;;;25.39;50.75;100611.88;5027605;28;20491;-54
2022/07/04 07:08:42;;;;;;;0.40;0.20;;;;;;;25.21;50.51;100607.97;5021213;28;21026;-54
2022/07/04 07:11:17;;;;;;;0.40;0.20;;;;;;;25.99;49.33;100596.66;5022092;28;20474;-54
2022/07/04 07:13:46;;;;;;;0.40;0.20;;;;;;;25.18;49.65;100606.38;5009613;28;20447;-54
2022/07/04 07:16:13;;;;;;;0.40;0.20;;;;;;;25.01;49.44;100607.81;5021299;28;20453;-54
2022/07/04 07:18:40;;;;;;;0.40;0.20;;;;;;;25.01;49.18;100606.94;5027170;28;20788;-54
2022/07/04 07:21:06;;;;;;;0.40;0.20;;;;;;;25.10;49.21;100600.72;5026639;28;21030;-54
2022/07/04 07:23:33;;;;;;;0.40;0.20;;;;;;;25.58;48.77;100601.09;5022602;28;20559;-54
2022/07/04 07:25:59;;;;;;;0.40;0.20;;;;;;;25.10;49.11;100601.59;5021320;28;20495;-54
2022/07/04 07:28:26;;;;;;;0.40;0.20;;;;;;;24.81;49.93;100606.72;5026028;28;20871;-54
2022/07/04 07:30:52;;;;;;;0.50;0.40;;;;;;;24.50;50.77;100613.78;5028118;28;20448;-54
2022/07/04 07:33:19;;;;;;;0.40;0.20;;;;;;;24.49;50.17;100606.63;5022763;28;20466;-54
2022/07/04 07:35:45;;;;;;;0.40;0.20;;;;;;;24.74;49.24;100605.50;5029465;28;20582;-51
2022/07/04 07:38:12;;;;;;;0.40;0.20;;;;;;;25.10;48.70;100600.72;5022510;28;20458;-51
2022/07/04 07:40:38;;;;;;;0.40;0.20;;;;;;;25.15;48.85;100601.19;5034598;28;21287;-51
2022/07/04 07:43:04;;;;;;;0.40;0.20;;;;;;;25.16;48.90;100602.91;5025061;28;20820;-51
2022/07/04 07:45:31;;;;;;;0.40;0.20;;;;;;;24.98;47.60;100601.72;5027540;28;20570;-51
2022/07/04 07:47:57;;;;;;;0.40;0.20;;;;;;;24.73;48.00;100605.63;5023721;28;20483;-51
2022/07/04 07:50:24;;;;;;;0.40;0.20;;;;;;;24.98;47.45;100604.44;5020656;28;20549;-51
2022/07/04 07:52:50;;;;;;;0.40;0.20;;;;;;;25.48;46.95;100600.16;5024647;28;20452;-50
2022/07/04 07:55:17;;;;;;;1.13;1.13;;;;;;;25.55;46.30;100601.38;5027086;28;20548;-52
2022/07/04 07:57:43;;;;;;;0.40;0.20;;;;;;;25.49;46.64;100609.19;5024192;28;20448;-51
2022/07/04 08:00:14;;;;;;;0.40;0.20;;;;;;;25.61;45.11;100605.41;5020694;28;20506;-51
2022/07/04 08:05:46;;;;;;;0.40;0.20;;;;;;;25.38;45.91;100594.66;5021992;28;20522;-51
2022/07/04 08:08:12;;;;;;;0.40;0.20;;;;;;;26.10;44.13;100602.03;5019402;28;20563;-52
2022/07/04 08:10:39;;;;;;;0.40;0.20;;;;;;;25.98;44.56;100594.94;5024744;28;20475;-51
2022/07/04 08:13:05;;;;;;;0.40;0.20;;;;;;;25.72;43.90;100580.88;5027480;28;20959;-51
2022/07/04 08:15:32;;;;;;;0.40;0.20;;;;;;;25.38;44.66;100582.91;5022883;28;20472;-51
2022/07/04 08:17:59;;;;;;;0.40;0.20;;;;;;;25.42;44.77;100581.66;5020056;28;20858;-51
2022/07/04 08:20:26;;;;;;;0.40;0.20;;;;;;;25.39;44.81;100587.38;5023942;28;20527;-51
2022/07/04 08:22:52;;;;;;;0.40;0.20;;;;;;;26.38;43.19;100581.38;5025772;28;20467;-51
2022/07/04 08:25:19;;;;;;;0.40;0.20;;;;;;;25.80;43.79;100578.38;5023415;28;20479;-51
2022/07/04 08:27:46;;;;;;;0.40;0.20;;;;;;;24.96;44.53;100585.53;5020119;28;20487;-52
2022/07/04 08:30:12;;;;;;;0.40;0.20;;;;;;;25.04;44.49;100569.44;5023474;28;20456;-51
2022/07/04 08:32:39;;;;;;;0.40;0.20;;;;;;;25.55;44.72;100573.28;5026457;28;20449;-51
2022/07/04 08:35:06;;;;;;;0.40;0.20;;;;;;;26.13;44.30;100571.78;5022433;28;20483;-51
2022/07/04 08:37:33;;;;;;;0.40;0.30;;;;;;;26.08;42.86;100568.63;5019588;28;20967;-51
2022/07/04 08:40:00;;;;;;;0.40;0.20;;;;;;;26.16;43.38;100567.91;5033003;28;20555;-51
2022/07/04 08:42:29;;;;;;;0.40;0.20;;;;;;;26.46;43.04;100569.81;5029329;28;20449;-51
2022/07/04 08:44:57;;;;;;;0.40;0.20;;;;;;;26.10;43.26;100566.59;5024302;28;20468;-50
2022/07/04 08:47:24;;;;;;;0.40;0.20;;;;;;;25.80;43.21;100572.06;5019242;28;20455;-51
2022/07/04 08:50:03;;;;;;;0.40;0.20;;;;;;;26.40;43.45;100575.78;5021058;28;20452;-51
2022/07/04 08:52:33;;;;;;;0.40;0.20;;;;;;;26.39;43.26;100572.19;5026578;28;20448;-51
2022/07/04 09:00:31;;;;;;;0.40;0.20;;;;;;;26.94;41.43;100567.16;5019645;28;20448;-52
2022/07/04 09:03:01;;;;;;;0.40;0.20;;;;;;;27.50;39.53;100566.44;5020520;28;20456;-52
2022/07/04 09:05:29;;;;;;;0.40;0.20;;;;;;;27.10;40.31;100562.00;5022887;28;20989;-53
2022/07/04 09:07:56;;;;;;;0.40;0.20;;;;;;;27.00;40.90;100563.88;5019351;28;20488;-52
2022/07/04 09:10:23;;;;;;;0.40;0.20;;;;;;;27.38;40.67;100565.75;5025366;28;20451;-52
2022/07/04 09:12:49;;;;;;;0.40;0.20;;;;;;;27.78;39.73;100559.22;5026220;28;20451;-52
2022/07/04 09:15:36;;;;;;;0.40;0.20;;;;;;;27.26;39.98;100555.09;5022644;28;20468;-52
2022/07/04 09:18:03;;;;;;;0.40;0.20;;;;;;;27.22;40.46;100556.41;5019314;28;20443;-52
2022/07/04 09:20:32;;;;;;;0.40;0.20;;;;;;;28.32;37.82;100552.16;5022149;28;20965;-53
2022/07/04 09:22:59;;;;;;;0.40;0.20;;;;;;;28.11;38.24;100538.72;5026725;28;20452;-52
2022/07/04 09:25:26;;;;;;;0.40;0.20;;;;;;;27.74;39.25;100541.41;5023386;28;20843;-52
2022/07/04 09:27:55;;;;;;;0.40;0.20;;;;;;;27.67;38.60;100545.75;5019205;28;20578;-53
2022/07/04 09:30:24;;;;;;;0.40;0.20;;;;;;;26.96;39.58;100545.16;5021068;28;20454;-52
2022/07/04 09:32:54;;;;;;;0.40;0.20;;;;;;;27.03;39.39;100535.47;5025931;28;20499;-53
2022/07/04 09:35:22;;;;;;;0.40;0.30;;;;;;;26.79;39.96;100523.06;5024823;28;20805;-53
2022/07/04 09:38:01;;;;;;;0.40;0.20;;;;;;;27.26;39.55;100523.22;5019099;28;20452;-52
2022/07/04 09:41:24;;;;;;;0.40;0.20;;;;;;;27.53;38.49;100521.59;5032226;28;20450;-53
2022/07/04 09:43:21;;;;;;;0.40;0.20;;;;;;;27.44;38.28;100534.28;5021422;28;20459;-52
2022/07/04 09:46:02;;;;;;;0.40;0.20;;;;;;;26.93;39.08;100519.03;5025763;28;20474;-52
2022/07/04 09:48:49;;;;;;;0.40;0.20;;;;;;;26.54;39.97;100518.13;5025495;28;20518;-52
2022/07/04 09:51:38;;;;;;;0.40;0.20;;;;;;;26.53;39.83;100520.00;5023355;28;20458;-53
2022/07/04 09:54:37;;;;;;;0.40;0.20;;;;;;;27.13;38.86;100519.91;5025506;28;20475;-53
2022/07/04 09:57:04;;;;;;;0.40;0.20;;;;;;;27.75;37.99;100521.28;5001138;28;20452;-52
2022/07/04 09:59:31;;;;;;;0.40;0.20;;;;;;;27.21;38.09;100519.22;5022511;28;20945;-52
2022/07/04 10:02:11;;;;;;;0.40;0.20;;;;;;;26.36;40.02;100520.69;5029553;28;20981;-52
2022/07/04 10:04:44;;;;;;;0.40;0.20;;;;;;;26.67;39.47;100526.06;5018740;28;21018;-53
2022/07/04 10:07:11;;;;;;;0.40;0.20;;;;;;;27.36;39.69;100529.53;5010091;28;20466;-52
2022/07/04 10:09:37;;;;;;;0.40;0.20;;;;;;;27.84;38.97;100527.75;5022675;28;20484;-56
2022/07/04 10:12:04;;;;;;;0.40;0.30;;;;;;;28.26;38.37;100530.88;5029215;28;20494;-52
2022/07/04 10:14:31;;;;;;;0.40;0.30;;;;;;;27.62;38.29;100532.50;5028968;28;20471;-53
2022/07/04 10:16:57;;;;;;;0.40;0.20;;;;;;;27.90;37.11;100529.88;5022981;28;20823;-53
2022/07/04 10:19:24;;;;;;;0.40;0.20;;;;;;;28.46;36.44;100532.50;5022318;28;20448;-53
2022/07/04 10:21:51;;;;;;;0.40;0.20;;;;;;;27.97;37.71;100536.47;5029150;28;20467;-52
2022/07/04 10:24:17;;;;;;;0.40;0.20;;;;;;;27.63;37.83;100533.34;5030193;28;20467;-52
2022/07/04 10:26:44;;;;;;;0.40;0.20;;;;;;;28.35;37.91;100540.03;5023962;28;20966;-52
2022/07/04 10:29:12;;;;;;;0.50;0.40;;;;;;;27.79;38.57;100539.09;5022351;28;20491;-53
2022/07/04 10:31:39;;;;;;;0.40;0.20;;;;;;;28.54;37.50;100535.34;5028130;28;20453;-53
2022/07/04 10:34:05;;;;;;;0.40;0.20;;;;;;;27.55;38.17;100542.31;5025509;28;20586;-53
2022/07/04 10:36:34;;;;;;;0.40;0.30;;;;;;;27.65;38.56;100537.69;5028002;28;20460;-53
2022/07/04 10:39:02;;;;;;;0.40;0.20;;;;;;;27.67;37.90;100534.81;5029595;28;20447;-53
2022/07/04 10:41:30;;;;;;;0.40;0.20;;;;;;;27.52;38.62;100534.38;5035338;28;20879;-53
2022/07/04 10:44:04;;;;;;;0.40;0.20;;;;;;;28.10;37.97;100534.25;5022001;28;20471;-53
2022/07/04 10:46:35;;;;;;;1.33;1.23;;;;;;;27.55;38.75;100533.22;5024843;28;20468;-53
2022/07/04 10:49:13;;;;;;;0.40;0.20;;;;;;;27.78;37.99;100533.78;5028762;28;20524;-53
2022/07/04 10:51:50;;;;;;;0.40;0.30;;;;;;;28.10;37.19;100536.09;5028621;28;20447;-53
2022/07/04 10:54:24;;;;;;;0.40;0.20;;;;;;;27.07;38.61;100526.81;5011319;28;20475;-53
2022/07/04 10:56:54;;;;;;;0.40;0.30;;;;;;;26.78;39.67;100521.34;5022185;28;20530;-53
2022/07/04 10:59:25;;;;;;;0.40;0.20;;;;;;;27.16;38.96;100514.19;5025942;28;20456;-52
2022/07/04 11:02:13;;;;;;;0.40;0.20;;;;;;;27.14;38.74;100518.94;5028590;28;20805;-55
2022/07/04 11:05:05;;;;;;;0.40;0.20;;;;;;;27.71;38.76;100519.88;5016564;28;20480;-53
2022/07/04 11:07:35;;;;;;;0.40;0.20;;;;;;;27.55;39.35;100514.09;5016993;28;20443;-52
2022/07/04 11:10:21;;;;;;;0.40;0.30;;;;;;;28.03;37.54;100525.78;5021543;28;20513;-52
2022/07/04 11:13:06;;;;;;;0.40;0.30;;;;;;;27.85;38.45;100518.53;5021108;28;20452;-53
2022/07/04 11:15:32;;;;;;;0.40;0.30;;;;;;;28.11;37.83;100515.97;5012721;28;20578;-52
2022/07/04 11:18:08;;;;;;;0.40;0.20;;;;;;;28.57;38.19;100513.13;5032214;28;20471;-53
2022/07/04 11:20:38;;;;;;;0.40;0.23;;;;;;;28.89;35.97;100514.50;5025382;28;20451;-52
2022/07/04 11:23:06;;;;;;;0.40;0.20;;;;;;;28.48;36.36;100511.31;5021236;28;20423;-53
2022/07/04 11:25:33;;;;;;;0.40;0.20;;;;;;;28.22;36.85;100500.22;5023772;28;20475;-53
2022/07/04 11:28:19;;;;;;;0.40;0.20;;;;;;;27.77;36.55;100494.66;5027639;28;20459;-52
2022/07/04 11:31:06;;;;;;;0.40;0.20;;;;;;;28.46;36.74;100488.72;5028057;28;20445;-52
2022/07/04 11:33:35;;;;;;;0.50;0.40;;;;;;;28.96;36.09;100495.59;5024163;28;20530;-52
2022/07/04 11:36:20;;;;;;;0.40;0.30;;;;;;;29.01;36.08;100482.28;5027811;28;20460;-53
2022/07/04 11:38:53;;;;;;;0.40;0.20;;;;;;;28.41;36.22;100487.47;5027752;28;20447;-53
2022/07/04 11:47:19;;;;;;;0.40;0.30;;;;;;;28.46;35.58;100477.78;5021001;28;20456;-51
2022/07/04 11:49:48;;;;;;;0.40;0.20;;;;;;;28.01;35.88;100475.00;5023434;28;20488;-51
2022/07/04 11:52:17;;;;;;;0.40;0.30;;;;;;;27.62;36.45;100477.00;5027462;28;20467;-51
2022/07/04 11:55:02;;;;;;;0.40;0.20;;;;;;;27.98;36.85;100478.06;5027207;28;20464;-52